Time;durP1;ratioP1;P1;durP2;ratioP2;P2;SDS_P1;SDS_P2;PMS_P1;PMS_P2;Temp;Humidity;BMP_temperature;BMP_pressure;BME280_temperature;BME280_humidity;BME280_pressure;Samples;Min_cycle;Max_cycle;Signal;HPM_P1;HPM_P2
2023/07/27 00:00:22;;;;;;;8.77;3.60;;;;;;;;;;756512;183;920505;-66
2023/07/27 00:02:48;;;;;;;6.00;2.93;;;;;;;;;;757013;183;919365;-60
2023/07/27 00:05:14;;;;;;;10.00;4.67;;;;;;;;;;760257;184;918001;-66
2023/07/27 00:07:39;;;;;;;8.80;3.57;;;;;;;;;;756841;184;815284;-65
2023/07/27 00:10:05;;;;;;;18.93;4.73;;;;;;;;;;752411;184;916854;-65
2023/07/27 00:12:31;;;;;;;10.40;3.73;;;;;;;;;;755304;183;941299;-65
2023/07/27 00:14:57;;;;;;;14.53;4.40;;;;;;;;;;757090;183;917231;-60
2023/07/27 00:17:23;;;;;;;9.67;4.50;;;;;;;;;;756863;184;918755;-59
2023/07/27 00:19:49;;;;;;;13.50;5.00;;;;;;;;;;754699;183;918894;-65
2023/07/27 00:22:15;;;;;;;14.60;4.10;;;;;;;;;;759514;184;919118;-59
2023/07/27 00:24:40;;;;;;;9.37;4.57;;;;;;;;;;754144;183;944263;-58
2023/07/27 00:27:06;;;;;;;23.67;4.60;;;;;;;;;;756435;183;1020491;-59
2023/07/27 00:29:32;;;;;;;15.37;5.40;;;;;;;;;;753837;184;917923;-66
2023/07/27 00:31:58;;;;;;;14.27;4.90;;;;;;;;;;754323;184;920264;-65
2023/07/27 00:34:24;;;;;;;10.02;4.60;;;;;;;;;;749287;185;919223;-65
2023/07/27 00:36:50;;;;;;;12.70;4.53;;;;;;;;;;752105;184;918021;-58
2023/07/27 00:39:15;;;;;;;24.07;5.10;;;;;;;;;;753272;184;919056;-65
2023/07/27 00:41:41;;;;;;;20.57;5.53;;;;;;;;;;758559;183;917717;-68
2023/07/27 00:44:07;;;;;;;15.23;5.10;;;;;;;;;;756421;183;922161;-59
2023/07/27 00:46:33;;;;;;;6.00;4.63;;;;;;;;;;757412;184;807655;-59
2023/07/27 00:48:59;;;;;;;8.60;5.30;;;;;;;;;;735904;188;912026;-67
2023/07/27 00:51:25;;;;;;;12.10;4.37;;;;;;;;;;756539;183;918213;-65
2023/07/27 00:53:51;;;;;;;15.63;4.07;;;;;;;;;;759906;184;917847;-65
2023/07/27 00:56:16;;;;;;;16.00;5.03;;;;;;;;;;754026;183;938996;-66
2023/07/27 00:58:42;;;;;;;13.73;4.80;;;;;;;;;;754729;184;918222;-65
2023/07/27 01:01:08;;;;;;;8.00;5.57;;;;;;;;;;760291;183;919791;-59
2023/07/27 01:03:34;;;;;;;13.03;5.20;;;;;;;;;;751960;184;918641;-59
2023/07/27 01:06:00;;;;;;;12.23;5.07;;;;;;;;;;752121;183;943695;-65
2023/07/27 01:08:26;;;;;;;22.67;5.80;;;;;;;;;;757849;181;917371;-59
2023/07/27 01:10:52;;;;;;;14.77;5.67;;;;;;;;;;754511;183;917099;-59
2023/07/27 01:13:21;;;;;;;10.50;5.62;;;;;;;;;;752510;184;903852;-59
2023/07/27 01:15:47;;;;;;;11.63;4.83;;;;;;;;;;758209;182;816898;-66
2023/07/27 01:18:13;;;;;;;10.90;5.10;;;;;;;;;;743693;187;918421;-63
2023/07/27 01:20:46;;;;;;;9.73;5.67;;;;;;;;;;751532;184;917927;-65
2023/07/27 01:23:22;;;;;;;10.90;4.80;;;;;;;;;;753136;184;920749;-59
2023/07/27 01:26:03;;;;;;;11.00;5.30;;;;;;;;;;744150;184;919541;-66
2023/07/27 01:28:44;;;;;;;9.90;5.43;;;;;;;;;;751942;184;919089;-59
2023/07/27 01:31:10;;;;;;;6.67;5.33;;;;;;;;;;750645;184;921027;-59
2023/07/27 01:33:36;;;;;;;11.20;6.07;;;;;;;;;;757942;184;919116;-66
2023/07/27 01:36:04;;;;;;;9.37;5.73;;;;;;;;;;755413;183;919112;-60
2023/07/27 01:38:30;;;;;;;8.70;5.90;;;;;;;;;;755609;183;919554;-67
2023/07/27 01:40:55;;;;;;;14.73;5.80;;;;;;;;;;755326;183;918982;-59
2023/07/27 01:43:21;;;;;;;11.80;5.77;;;;;;;;;;762347;183;919643;-59
2023/07/27 01:45:47;;;;;;;18.58;5.90;;;;;;;;;;753425;184;920049;-59
2023/07/27 01:48:13;;;;;;;15.23;6.50;;;;;;;;;;757396;184;919625;-59
2023/07/27 01:50:39;;;;;;;15.83;5.80;;;;;;;;;;760487;184;921029;-65
2023/07/27 01:53:05;;;;;;;10.93;5.63;;;;;;;;;;756717;184;820148;-60
2023/07/27 01:55:30;;;;;;;15.10;6.10;;;;;;;;;;756916;184;919051;-66
2023/07/27 01:57:59;;;;;;;9.60;6.90;;;;;;;;;;755605;184;918245;-59
2023/07/27 02:00:22;;;;;;;11.13;6.60;;;;;;;;;;745678;184;921246;-59
2023/07/27 02:02:48;;;;;;;12.63;6.83;;;;;;;;;;741453;188;893532;-59
2023/07/27 02:05:15;;;;;;;19.93;7.10;;;;;;;;;;747635;184;918037;-67
2023/07/27 02:07:40;;;;;;;18.83;8.13;;;;;;;;;;761612;184;919406;-66
2023/07/27 02:10:06;;;;;;;9.70;6.43;;;;;;;;;;753899;183;920453;-59
2023/07/27 02:12:33;;;;;;;16.05;7.18;;;;;;;;;;755916;183;918884;-66
2023/07/27 02:15:01;;;;;;;15.83;7.33;;;;;;;;;;757248;183;1019196;-59
2023/07/27 02:17:27;;;;;;;14.07;6.80;;;;;;;;;;752724;183;912325;-58
2023/07/27 02:19:53;;;;;;;14.40;6.87;;;;;;;;;;751389;183;918490;-60
2023/07/27 02:22:19;;;;;;;12.02;7.12;;;;;;;;;;757647;181;914351;-59
2023/07/27 02:24:45;;;;;;;9.90;6.47;;;;;;;;;;746188;186;912639;-58
2023/07/27 02:27:11;;;;;;;9.63;6.40;;;;;;;;;;757072;183;917417;-67
2023/07/27 02:29:37;;;;;;;11.27;5.90;;;;;;;;;;759957;182;921592;-65
2023/07/27 02:32:03;;;;;;;11.10;6.40;;;;;;;;;;762724;182;919478;-66
2023/07/27 02:34:29;;;;;;;10.97;6.50;;;;;;;;;;753562;183;946671;-59
2023/07/27 02:36:54;;;;;;;13.03;6.50;;;;;;;;;;754707;183;918574;-66
2023/07/27 02:39:20;;;;;;;10.27;6.00;;;;;;;;;;758873;183;919027;-60
2023/07/27 02:41:46;;;;;;;17.23;7.30;;;;;;;;;;754045;182;910433;-66
2023/07/27 02:44:12;;;;;;;11.63;6.73;;;;;;;;;;753168;182;921708;-65
2023/07/27 02:46:38;;;;;;;12.07;5.57;;;;;;;;;;759322;183;918392;-59
2023/07/27 02:49:04;;;;;;;12.47;5.43;;;;;;;;;;758448;182;920872;-65
2023/07/27 02:51:29;;;;;;;6.30;4.97;;;;;;;;;;754323;183;919275;-65
2023/07/27 02:53:55;;;;;;;14.33;6.33;;;;;;;;;;754089;183;917550;-65
2023/07/27 02:56:21;;;;;;;8.45;5.72;;;;;;;;;;760125;183;917728;-60
2023/07/27 02:58:47;;;;;;;12.77;5.40;;;;;;;;;;759353;183;919158;-64
2023/07/27 03:01:13;;;;;;;11.77;7.00;;;;;;;;;;755129;184;909253;-59
2023/07/27 03:03:39;;;;;;;22.17;6.43;;;;;;;;;;754967;184;914407;-65
2023/07/27 03:06:05;;;;;;;12.60;6.87;;;;;;;;;;754018;184;917782;-59
2023/07/27 03:08:31;;;;;;;10.67;6.30;;;;;;;;;;750735;184;918965;-66
2023/07/27 03:11:00;;;;;;;13.50;7.65;;;;;;;;;;759987;183;919300;-59
2023/07/27 03:13:26;;;;;;;10.50;7.20;;;;;;;;;;758655;184;919021;-66
2023/07/27 03:15:52;;;;;;;8.77;7.20;;;;;;;;;;755777;184;918441;-59
2023/07/27 03:18:18;;;;;;;9.10;6.57;;;;;;;;;;751382;184;919643;-66
2023/07/27 03:20:43;;;;;;;11.37;7.60;;;;;;;;;;761784;183;816684;-66
2023/07/27 03:23:09;;;;;;;12.77;7.47;;;;;;;;;;751754;183;846275;-65
2023/07/27 03:25:35;;;;;;;14.43;7.13;;;;;;;;;;755534;183;917890;-65
2023/07/27 03:28:02;;;;;;;13.50;7.53;;;;;;;;;;756519;184;916371;-65
2023/07/27 03:30:28;;;;;;;10.20;6.87;;;;;;;;;;751302;183;918775;-62
2023/07/27 03:32:53;;;;;;;20.43;7.90;;;;;;;;;;759350;183;920227;-65
2023/07/27 03:35:19;;;;;;;11.60;7.33;;;;;;;;;;760709;183;922300;-59
2023/07/27 03:37:45;;;;;;;9.50;7.03;;;;;;;;;;755592;183;943181;-65
2023/07/27 03:40:11;;;;;;;11.00;6.93;;;;;;;;;;753418;183;911299;-60
2023/07/27 03:42:37;;;;;;;9.53;6.53;;;;;;;;;;754753;183;907611;-59
2023/07/27 03:45:03;;;;;;;12.70;7.60;;;;;;;;;;758057;184;909141;-58
2023/07/27 03:47:29;;;;;;;16.62;6.53;;;;;;;;;;755170;183;905574;-65
2023/07/27 03:49:55;;;;;;;13.60;6.57;;;;;;;;;;753800;183;921225;-65
2023/07/27 03:52:21;;;;;;;7.00;5.60;;;;;;;;;;763200;183;819039;-58
2023/07/27 03:54:46;;;;;;;11.43;6.50;;;;;;;;;;757197;183;821858;-58
2023/07/27 03:57:12;;;;;;;14.43;7.60;;;;;;;;;;753468;183;937589;-59
2023/07/27 03:59:38;;;;;;;9.75;6.93;;;;;;;;;;743320;187;921909;-58
2023/07/27 04:02:04;;;;;;;11.37;6.90;;;;;;;;;;752115;184;877773;-59
2023/07/27 04:04:30;;;;;;;10.53;6.87;;;;;;;;;;757008;183;919469;-59
2023/07/27 04:06:56;;;;;;;12.40;6.13;;;;;;;;;;753467;183;918781;-64
2023/07/27 04:09:22;;;;;;;9.13;6.70;;;;;;;;;;750790;185;918935;-58
2023/07/27 04:11:48;;;;;;;10.27;6.63;;;;;;;;;;753350;183;920020;-65
2023/07/27 04:14:13;;;;;;;12.60;6.37;;;;;;;;;;754654;183;933113;-65
2023/07/27 04:16:39;;;;;;;12.60;5.60;;;;;;;;;;761910;184;917863;-58
2023/07/27 04:19:05;;;;;;;8.80;5.70;;;;;;;;;;754149;184;917671;-58
2023/07/27 04:21:31;;;;;;;8.93;6.80;;;;;;;;;;755716;184;918994;-65
2023/07/27 04:23:57;;;;;;;7.77;6.17;;;;;;;;;;758064;184;919132;-65
2023/07/27 04:26:23;;;;;;;8.97;6.07;;;;;;;;;;746817;183;919163;-59
2023/07/27 04:28:48;;;;;;;14.07;5.97;;;;;;;;;;755250;183;816299;-61
2023/07/27 04:31:14;;;;;;;13.07;6.00;;;;;;;;;;759710;183;917763;-64
2023/07/27 04:33:40;;;;;;;10.63;6.43;;;;;;;;;;757077;184;919652;-65
2023/07/27 04:36:06;;;;;;;7.50;5.23;;;;;;;;;;748277;184;916832;-59
2023/07/27 04:38:32;;;;;;;8.00;5.93;;;;;;;;;;754350;184;815897;-59
2023/07/27 04:40:58;;;;;;;21.37;6.80;;;;;;;;;;761959;183;918075;-59
2023/07/27 04:43:24;;;;;;;9.47;5.87;;;;;;;;;;757028;183;919168;-59
2023/07/27 04:45:50;;;;;;;9.80;5.97;;;;;;;;;;753558;184;913133;-65
2023/07/27 04:48:15;;;;;;;16.10;6.20;;;;;;;;;;761610;183;918738;-66
2023/07/27 04:50:41;;;;;;;12.55;5.53;;;;;;;;;;758971;183;914355;-58
2023/07/27 04:53:07;;;;;;;7.33;5.27;;;;;;;;;;754182;182;916857;-58
2023/07/27 04:55:33;;;;;;;7.97;5.60;;;;;;;;;;760878;183;912703;-58
2023/07/27 04:57:59;;;;;;;12.03;5.77;;;;;;;;;;757998;182;916221;-58
2023/07/27 05:00:25;;;;;;;14.73;6.40;;;;;;;;;;752726;182;925712;-58
2023/07/27 05:02:50;;;;;;;12.33;8.53;;;;;;;;;;756011;182;918324;-64
2023/07/27 05:05:16;;;;;;;12.63;7.00;;;;;;;;;;761852;183;917639;-58
2023/07/27 05:07:42;;;;;;;7.40;6.10;;;;;;;;;;758744;182;919108;-65
2023/07/27 05:10:08;;;;;;;14.70;6.35;;;;;;;;;;755622;183;918673;-58
2023/07/27 05:12:34;;;;;;;10.03;6.40;;;;;;;;;;760863;184;920049;-64
2023/07/27 05:15:00;;;;;;;9.27;5.87;;;;;;;;;;758536;183;890092;-65
2023/07/27 05:17:25;;;;;;;9.10;6.40;;;;;;;;;;755519;183;939114;-64
2023/07/27 05:19:53;;;;;;;11.10;6.40;;;;;;;;;;762391;183;909971;-65
2023/07/27 05:22:17;;;;;;;10.63;6.47;;;;;;;;;;753568;182;920015;-66
2023/07/27 05:24:43;;;;;;;10.57;5.90;;;;;;;;;;753799;184;918905;-58
2023/07/27 05:27:09;;;;;;;10.97;6.00;;;;;;;;;;757189;184;919090;-59
2023/07/27 05:29:35;;;;;;;7.20;6.50;;;;;;;;;;745445;187;918988;-65
2023/07/27 05:32:01;;;;;;;8.87;6.60;;;;;;;;;;747007;184;920554;-65
2023/07/27 05:34:26;;;;;;;7.70;5.73;;;;;;;;;;748786;184;917652;-65
2023/07/27 05:36:52;;;;;;;17.58;6.85;;;;;;;;;;761598;184;815524;-65
2023/07/27 05:39:18;;;;;;;10.23;7.37;;;;;;;;;;758294;183;816499;-59
2023/07/27 05:41:44;;;;;;;11.03;5.50;;;;;;;;;;759068;183;919017;-63
2023/07/27 05:44:10;;;;;;;13.27;6.60;;;;;;;;;;760850;183;916941;-59
2023/07/27 05:46:36;;;;;;;10.90;5.60;;;;;;;;;;759513;183;904437;-66
2023/07/27 05:49:02;;;;;;;11.20;6.73;;;;;;;;;;754568;184;915774;-59
2023/07/27 05:51:28;;;;;;;7.30;5.43;;;;;;;;;;753596;184;918503;-65
2023/07/27 05:53:54;;;;;;;6.73;5.43;;;;;;;;;;755864;181;918713;-59
2023/07/27 05:56:19;;;;;;;10.53;5.90;;;;;;;;;;754994;183;918976;-59
2023/07/27 05:58:45;;;;;;;5.50;4.70;;;;;;;;;;757411;184;920002;-59
2023/07/27 06:01:11;;;;;;;6.33;5.10;;;;;;;;;;758042;184;919143;-66
2023/07/27 06:03:37;;;;;;;6.30;4.13;;;;;;;;;;757771;182;920682;-66
2023/07/27 06:06:03;;;;;;;6.20;4.40;;;;;;;;;;756162;183;920226;-66
2023/07/27 06:08:29;;;;;;;7.30;4.27;;;;;;;;;;757356;184;819577;-59
2023/07/27 06:10:59;;;;;;;6.70;4.57;;;;;;;;;;758351;182;919376;-59
2023/07/27 06:13:24;;;;;;;6.90;4.30;;;;;;;;;;758077;182;918571;-59
2023/07/27 06:15:50;;;;;;;5.57;4.17;;;;;;;;;;753572;183;918185;-59
2023/07/27 06:18:16;;;;;;;5.67;4.50;;;;;;;;;;760025;184;816408;-66
2023/07/27 06:20:42;;;;;;;6.03;3.90;;;;;;;;;;751736;182;919055;-59
2023/07/27 06:23:08;;;;;;;7.57;4.10;;;;;;;;;;757442;182;920167;-66
2023/07/27 06:25:34;;;;;;;7.37;5.00;;;;;;;;;;760053;183;916865;-58
2023/07/27 06:27:59;;;;;;;5.90;3.90;;;;;;;;;;754631;183;919102;-59
2023/07/27 06:30:25;;;;;;;6.00;4.20;;;;;;;;;;750287;182;910282;-66
2023/07/27 06:32:51;;;;;;;13.33;5.30;;;;;;;;;;758429;184;917110;-65
2023/07/27 06:35:17;;;;;;;6.30;4.10;;;;;;;;;;759514;183;917115;-68
2023/07/27 06:37:43;;;;;;;5.80;3.90;;;;;;;;;;754000;183;919269;-66
2023/07/27 06:40:09;;;;;;;6.40;4.70;;;;;;;;;;755285;183;917817;-59
2023/07/27 06:42:34;;;;;;;9.95;4.43;;;;;;;;;;757755;184;918257;-65
2023/07/27 06:45:01;;;;;;;9.10;6.70;;;;;;;;;;755481;183;918890;-58
2023/07/27 06:47:26;;;;;;;6.97;4.20;;;;;;;;;;752109;183;919482;-59
2023/07/27 06:49:52;;;;;;;6.13;4.63;;;;;;;;;;760614;183;815467;-66
2023/07/27 06:52:18;;;;;;;32.13;6.70;;;;;;;;;;755462;183;917047;-65
2023/07/27 06:54:44;;;;;;;10.43;4.10;;;;;;;;;;750219;184;927789;-65
2023/07/27 06:57:11;;;;;;;5.57;4.73;;;;;;;;;;752872;184;918633;-59
2023/07/27 06:59:35;;;;;;;7.23;4.70;;;;;;;;;;754422;183;910182;-66
2023/07/27 07:02:01;;;;;;;5.70;4.37;;;;;;;;;;756356;183;914771;-59
2023/07/27 07:04:27;;;;;;;5.13;4.23;;;;;;;;;;756883;184;918676;-58
2023/07/27 07:06:53;;;;;;;10.50;5.00;;;;;;;;;;755686;183;921855;-58
2023/07/27 07:09:19;;;;;;;8.70;4.90;;;;;;;;;;753249;183;915070;-58
2023/07/27 07:11:45;;;;;;;8.90;4.00;;;;;;;;;;761618;183;641450;-66
2023/07/27 07:14:10;;;;;;;5.40;4.37;;;;;;;;;;761653;184;814914;-59
2023/07/27 07:16:36;;;;;;;6.40;4.57;;;;;;;;;;747345;182;921788;-60
2023/07/27 07:19:02;;;;;;;6.67;4.60;;;;;;;;;;752735;183;953931;-59
2023/07/27 07:21:28;;;;;;;7.00;3.90;;;;;;;;;;760852;183;915573;-59
2023/07/27 07:23:54;;;;;;;7.77;4.30;;;;;;;;;;755128;183;923920;-59
2023/07/27 07:26:20;;;;;;;8.50;4.40;;;;;;;;;;756285;182;919149;-67
2023/07/27 07:28:45;;;;;;;6.20;3.87;;;;;;;;;;761355;183;916096;-67
2023/07/27 07:31:11;;;;;;;5.80;4.83;;;;;;;;;;753941;183;919511;-67
2023/07/27 07:33:37;;;;;;;8.53;3.93;;;;;;;;;;756558;182;916380;-59
2023/07/27 07:36:03;;;;;;;6.60;4.77;;;;;;;;;;756636;183;920105;-59
2023/07/27 07:38:29;;;;;;;5.40;4.30;;;;;;;;;;761719;184;914486;-61
2023/07/27 07:40:55;;;;;;;6.57;4.07;;;;;;;;;;748392;183;918394;-59
2023/07/27 07:43:20;;;;;;;6.77;4.50;;;;;;;;;;751463;183;917137;-59
2023/07/27 07:45:46;;;;;;;8.37;4.50;;;;;;;;;;761196;183;919064;-58
2023/07/27 07:48:12;;;;;;;10.90;3.80;;;;;;;;;;757006;183;919360;-66
2023/07/27 07:50:38;;;;;;;7.87;4.03;;;;;;;;;;754564;183;816761;-59
2023/07/27 07:53:05;;;;;;;7.17;4.60;;;;;;;;;;761176;183;919379;-58
2023/07/27 07:55:30;;;;;;;8.50;3.70;;;;;;;;;;758588;184;638549;-59
2023/07/27 07:57:55;;;;;;;8.73;4.33;;;;;;;;;;758128;183;919284;-66
2023/07/27 08:00:21;;;;;;;5.67;4.30;;;;;;;;;;764602;183;619204;-59
2023/07/27 08:02:47;;;;;;;9.10;4.43;;;;;;;;;;751609;183;819577;-66
2023/07/27 08:05:13;;;;;;;9.60;5.00;;;;;;;;;;754728;183;918660;-59
2023/07/27 08:07:39;;;;;;;7.30;4.17;;;;;;;;;;761280;183;624498;-59
2023/07/27 08:10:05;;;;;;;4.30;3.37;;;;;;;;;;760958;185;615365;-65
2023/07/27 08:12:31;;;;;;;4.70;3.80;;;;;;;;;;761095;183;617000;-59
2023/07/27 08:14:57;;;;;;;6.50;4.10;;;;;;;;;;760139;184;628189;-59
2023/07/27 08:17:23;;;;;;;6.40;4.30;;;;;;;;;;765462;182;623757;-62
2023/07/27 08:19:49;;;;;;;5.57;4.23;;;;;;;;;;763136;183;634355;-60
2023/07/27 08:22:14;;;;;;;5.77;4.40;;;;;;;;;;760742;184;623206;-66
2023/07/27 08:24:40;;;;;;;5.07;3.80;;;;;;;;;;760257;183;630955;-68
2023/07/27 08:27:08;;;;;;;7.12;4.75;;;;;;;;;;758331;182;918903;-68
2023/07/27 08:29:32;;;;;;;7.50;4.73;;;;;;;;;;757271;184;914010;-66
2023/07/27 08:31:58;;;;;;;8.27;4.43;;;;;;;;;;750437;184;918542;-59
2023/07/27 08:34:24;;;;;;;7.40;4.70;;;;;;;;;;763550;182;917468;-66
2023/07/27 08:36:51;;;;;;;7.03;4.73;;;;;;;;;;754326;183;920131;-59
2023/07/27 08:39:16;;;;;;;7.68;4.80;;;;;;;;;;755144;183;1020603;-59
2023/07/27 08:41:41;;;;;;;6.40;4.60;;;;;;;;;;763568;183;897096;-69
2023/07/27 08:44:07;;;;;;;7.00;4.40;;;;;;;;;;755898;183;920770;-65
2023/07/27 08:46:33;;;;;;;5.83;3.97;;;;;;;;;;754510;183;952205;-67
2023/07/27 08:48:59;;;;;;;7.33;4.53;;;;;;;;;;757379;183;922574;-68
2023/07/27 08:51:25;;;;;;;5.50;4.23;;;;;;;;;;752565;183;920424;-67
2023/07/27 08:53:50;;;;;;;7.73;4.30;;;;;;;;;;754822;183;917934;-67
2023/07/27 08:56:16;;;;;;;7.20;5.63;;;;;;;;;;755675;183;912720;-60
2023/07/27 08:58:42;;;;;;;7.10;4.90;;;;;;;;;;761602;183;815726;-67
2023/07/27 09:01:08;;;;;;;7.87;5.40;;;;;;;;;;750911;184;916573;-59
2023/07/27 09:03:34;;;;;;;7.37;3.93;;;;;;;;;;754687;184;918503;-67
2023/07/27 09:06:00;;;;;;;8.07;4.67;;;;;;;;;;760025;183;917143;-59
2023/07/27 09:08:26;;;;;;;5.50;4.60;;;;;;;;;;753814;184;919306;-66
2023/07/27 09:10:52;;;;;;;7.40;4.53;;;;;;;;;;754027;184;825429;-66
2023/07/27 09:13:18;;;;;;;5.67;4.10;;;;;;;;;;756672;183;914861;-60
2023/07/27 09:15:44;;;;;;;7.13;4.43;;;;;;;;;;756544;183;918768;-59
2023/07/27 09:18:10;;;;;;;6.20;4.10;;;;;;;;;;748929;183;916946;-67
2023/07/27 09:20:36;;;;;;;5.70;3.83;;;;;;;;;;753795;184;909903;-59
2023/07/27 09:23:01;;;;;;;6.97;4.00;;;;;;;;;;754661;183;873948;-67
2023/07/27 09:25:27;;;;;;;5.27;4.17;;;;;;;;;;750111;184;918269;-66
2023/07/27 09:27:53;;;;;;;5.40;4.30;;;;;;;;;;753946;184;918716;-66
2023/07/27 09:30:19;;;;;;;17.93;4.00;;;;;;;;;;752295;183;815956;-67
2023/07/27 09:32:45;;;;;;;6.10;3.57;;;;;;;;;;754426;183;716452;-59
2023/07/27 09:35:12;;;;;;;5.50;3.70;;;;;;;;;;754263;183;921661;-60
2023/07/27 09:37:38;;;;;;;5.97;4.37;;;;;;;;;;761983;183;918881;-59
2023/07/27 09:40:07;;;;;;;5.70;3.70;;;;;;;;;;756587;182;876985;-59
2023/07/27 09:42:31;;;;;;;4.53;3.17;;;;;;;;;;754658;182;918008;-60
2023/07/27 09:44:57;;;;;;;5.00;2.93;;;;;;;;;;757440;183;918552;-60
2023/07/27 09:47:29;;;;;;;4.37;3.10;;;;;;;;;;746269;184;2446063;-59
2023/07/27 09:49:50;;;;;;;5.00;3.03;;;;;;;;;;754592;183;848762;-59
2023/07/27 09:52:14;;;;;;;4.70;3.20;;;;;;;;;;756107;183;918281;-59
2023/07/27 09:54:40;;;;;;;5.43;2.90;;;;;;;;;;757669;184;920100;-66
2023/07/27 09:57:06;;;;;;;4.30;3.20;;;;;;;;;;750843;184;917581;-59
2023/07/27 09:59:32;;;;;;;4.10;3.00;;;;;;;;;;754304;183;919587;-67
2023/07/27 10:01:58;;;;;;;4.00;2.83;;;;;;;;;;756799;184;909533;-66
2023/07/27 10:04:24;;;;;;;9.23;3.23;;;;;;;;;;759226;183;912133;-66
2023/07/27 10:06:49;;;;;;;5.80;2.73;;;;;;;;;;754821;183;911416;-66
2023/07/27 10:09:17;;;;;;;5.53;2.80;;;;;;;;;;764055;183;900730;-66
2023/07/27 10:11:48;;;;;;;4.50;2.50;;;;;;;;;;740431;184;914695;-59
2023/07/27 10:14:16;;;;;;;4.40;2.07;;;;;;;;;;744632;184;918696;-59
2023/07/27 10:16:42;;;;;;;4.90;2.53;;;;;;;;;;755352;183;921327;-59
2023/07/27 10:19:07;;;;;;;4.57;2.20;;;;;;;;;;756903;184;895044;-59
2023/07/27 10:21:34;;;;;;;7.97;3.03;;;;;;;;;;752798;184;912765;-67
2023/07/27 10:23:59;;;;;;;5.40;3.20;;;;;;;;;;751700;184;914632;-66
2023/07/27 10:26:43;;;;;;;6.75;2.58;;;;;;;;;;761444;184;808842;-60
2023/07/27 10:29:12;;;;;;;6.97;2.73;;;;;;;;;;748712;183;918246;-59
2023/07/27 10:31:38;;;;;;;4.67;2.30;;;;;;;;;;760385;183;798353;-66
2023/07/27 10:34:04;;;;;;;3.30;1.97;;;;;;;;;;752482;184;921860;-67
2023/07/27 10:36:35;;;;;;;4.00;2.40;;;;;;;;;;753107;183;817447;-60
2023/07/27 10:39:01;;;;;;;5.80;2.50;;;;;;;;;;756991;184;739656;-66
2023/07/27 10:41:28;;;;;;;3.10;2.10;;;;;;;;;;754488;182;840961;-66
2023/07/27 10:43:59;;;;;;;3.30;1.77;;;;;;;;;;755208;184;920442;-59
2023/07/27 10:46:24;;;;;;;3.17;2.43;;;;;;;;;;753653;183;918551;-67
2023/07/27 10:48:57;;;;;;;3.50;1.73;;;;;;;;;;763509;183;849475;-66
2023/07/27 10:51:23;;;;;;;4.40;2.10;;;;;;;;;;758005;183;813888;-66
2023/07/27 10:53:49;;;;;;;2.90;1.97;;;;;;;;;;760144;182;872177;-67
2023/07/27 10:56:14;;;;;;;3.20;1.87;;;;;;;;;;756166;183;923095;-59
2023/07/27 10:58:40;;;;;;;3.83;2.13;;;;;;;;;;755089;184;918963;-59
2023/07/27 11:01:06;;;;;;;3.80;1.80;;;;;;;;;;756825;183;918834;-59
2023/07/27 11:03:32;;;;;;;3.97;2.37;;;;;;;;;;752137;183;918951;-59
2023/07/27 11:06:03;;;;;;;2.80;1.90;;;;;;;;;;759061;183;950949;-67
2023/07/27 11:08:29;;;;;;;4.63;1.87;;;;;;;;;;756546;183;894726;-58
2023/07/27 11:10:54;;;;;;;92.87;8.73;;;;;;;;;;752307;184;915866;-67
2023/07/27 11:13:22;;;;;;;4.90;2.10;;;;;;;;;;752881;183;934128;-67
2023/07/27 11:15:48;;;;;;;5.20;1.83;;;;;;;;;;745815;187;920170;-67
2023/07/27 11:18:14;;;;;;;4.97;2.30;;;;;;;;;;755377;184;819825;-59
2023/07/27 11:20:40;;;;;;;3.43;2.30;;;;;;;;;;754572;183;920847;-59
2023/07/27 11:23:05;;;;;;;5.20;2.10;;;;;;;;;;758345;183;918942;-62
2023/07/27 11:25:32;;;;;;;3.07;2.13;;;;;;;;;;750644;184;912042;-59
2023/07/27 11:27:58;;;;;;;6.17;2.20;;;;;;;;;;757874;184;856299;-59
2023/07/27 11:30:24;;;;;;;4.60;2.30;;;;;;;;;;755069;184;710880;-66
2023/07/27 11:32:57;;;;;;;4.70;2.53;;;;;;;;;;756391;184;918561;-66
2023/07/27 11:35:22;;;;;;;4.37;2.20;;;;;;;;;;756357;184;896957;-58
2023/07/27 11:37:48;;;;;;;4.80;2.60;;;;;;;;;;750644;184;918762;-66
2023/07/27 11:40:17;;;;;;;2.77;2.10;;;;;;;;;;758383;184;919598;-65
2023/07/27 11:42:43;;;;;;;4.73;2.10;;;;;;;;;;751907;184;921108;-62
2023/07/27 11:45:10;;;;;;;3.47;2.10;;;;;;;;;;756217;183;926965;-58
2023/07/27 11:47:35;;;;;;;4.03;2.20;;;;;;;;;;759545;183;628866;-59
2023/07/27 11:50:01;;;;;;;3.70;2.30;;;;;;;;;;764252;183;620113;-65
2023/07/27 11:52:27;;;;;;;3.22;2.33;;;;;;;;;;753988;183;813959;-64
2023/07/27 11:54:55;;;;;;;3.50;2.37;;;;;;;;;;759508;182;940433;-59
2023/07/27 11:57:19;;;;;;;3.47;2.30;;;;;;;;;;764330;182;920257;-58
2023/07/27 11:59:50;;;;;;;8.20;2.00;;;;;;;;;;755628;183;919407;-58
2023/07/27 12:02:16;;;;;;;4.90;2.50;;;;;;;;;;757218;183;924507;-65
2023/07/27 12:04:42;;;;;;;4.00;2.10;;;;;;;;;;757011;184;920541;-59
2023/07/27 12:07:08;;;;;;;3.10;2.20;;;;;;;;;;753583;184;918874;-58
2023/07/27 12:09:36;;;;;;;3.30;2.40;;;;;;;;;;746046;183;921547;-66
2023/07/27 12:12:02;;;;;;;5.80;2.50;;;;;;;;;;755550;183;823438;-59
2023/07/27 12:14:27;;;;;;;2.87;2.00;;;;;;;;;;757388;183;815471;-58
2023/07/27 12:16:53;;;;;;;2.93;1.87;;;;;;;;;;756197;183;913057;-60
2023/07/27 12:19:19;;;;;;;3.37;2.03;;;;;;;;;;756730;183;912216;-58
2023/07/27 12:21:47;;;;;;;5.95;2.47;;;;;;;;;;759175;182;917443;-59
2023/07/27 12:24:11;;;;;;;3.27;2.00;;;;;;;;;;754580;183;921038;-65
2023/07/27 12:26:37;;;;;;;2.90;2.00;;;;;;;;;;760089;183;914168;-65
2023/07/27 12:29:02;;;;;;;4.57;2.17;;;;;;;;;;752203;184;918026;-64
2023/07/27 12:31:28;;;;;;;3.53;2.00;;;;;;;;;;759496;184;920301;-66
2023/07/27 12:33:54;;;;;;;3.27;2.50;;;;;;;;;;748313;183;910243;-66
2023/07/27 12:36:20;;;;;;;3.10;2.30;;;;;;;;;;755255;183;900908;-59
2023/07/27 12:38:46;;;;;;;2.70;1.90;;;;;;;;;;756204;183;918643;-58
2023/07/27 12:41:12;;;;;;;7.53;3.20;;;;;;;;;;756235;183;919649;-59
2023/07/27 12:43:38;;;;;;;4.07;2.37;;;;;;;;;;757864;183;920836;-65
2023/07/27 12:46:04;;;;;;;8.97;4.63;;;;;;;;;;760883;183;816874;-60
2023/07/27 12:48:29;;;;;;;2.70;1.90;;;;;;;;;;756206;183;836530;-66
2023/07/27 12:50:55;;;;;;;4.15;2.03;;;;;;;;;;755526;184;910068;-58
2023/07/27 12:53:21;;;;;;;36.60;10.83;;;;;;;;;;761209;183;917843;-58
2023/07/27 12:55:47;;;;;;;5.67;2.90;;;;;;;;;;757029;183;819324;-65
2023/07/27 12:58:13;;;;;;;3.80;2.53;;;;;;;;;;754486;184;817335;-58
2023/07/27 13:00:39;;;;;;;3.63;1.97;;;;;;;;;;754956;183;905802;-65
2023/07/27 13:03:04;;;;;;;5.30;1.83;;;;;;;;;;764093;183;917294;-58
2023/07/27 13:05:30;;;;;;;3.37;2.30;;;;;;;;;;761187;182;921365;-58
2023/07/27 13:07:56;;;;;;;3.13;1.87;;;;;;;;;;757990;183;918771;-65
2023/07/27 13:10:22;;;;;;;3.00;2.30;;;;;;;;;;757088;184;918863;-66
2023/07/27 13:12:48;;;;;;;2.93;1.73;;;;;;;;;;757609;183;825530;-65
2023/07/27 13:15:15;;;;;;;4.10;2.23;;;;;;;;;;756618;182;919124;-58
2023/07/27 13:17:40;;;;;;;4.23;2.20;;;;;;;;;;755931;183;918080;-58
2023/07/27 13:20:06;;;;;;;7.50;3.10;;;;;;;;;;754480;183;852185;-64
2023/07/27 13:22:32;;;;;;;22.70;5.60;;;;;;;;;;754500;183;918695;-66
2023/07/27 13:24:58;;;;;;;19.83;6.97;;;;;;;;;;755456;183;918064;-58
2023/07/27 13:27:23;;;;;;;4.67;2.53;;;;;;;;;;753772;184;923092;-65
2023/07/27 13:29:49;;;;;;;23.87;7.10;;;;;;;;;;754198;182;917949;-58
2023/07/27 13:32:15;;;;;;;4.33;2.30;;;;;;;;;;754657;183;914450;-64
2023/07/27 13:34:41;;;;;;;3.17;2.00;;;;;;;;;;760070;184;813333;-59
2023/07/27 13:37:07;;;;;;;3.40;2.10;;;;;;;;;;753647;184;857352;-58
2023/07/27 13:39:33;;;;;;;4.00;2.23;;;;;;;;;;753071;184;924713;-65
2023/07/27 13:41:58;;;;;;;3.00;1.80;;;;;;;;;;761500;183;918708;-65
2023/07/27 13:44:24;;;;;;;2.70;1.70;;;;;;;;;;755483;183;916733;-64
2023/07/27 13:46:50;;;;;;;2.87;1.83;;;;;;;;;;748443;184;917769;-64
2023/07/27 13:49:17;;;;;;;3.60;2.22;;;;;;;;;;756856;184;918050;-59
2023/07/27 13:51:42;;;;;;;4.40;2.30;;;;;;;;;;756277;184;920406;-58
2023/07/27 13:54:10;;;;;;;5.97;2.33;;;;;;;;;;753793;184;918937;-65
2023/07/27 13:56:34;;;;;;;11.70;2.40;;;;;;;;;;751708;184;917426;-58
2023/07/27 13:59:00;;;;;;;3.87;2.37;;;;;;;;;;763191;183;920304;-65
2023/07/27 14:01:26;;;;;;;3.07;1.97;;;;;;;;;;755650;183;919403;-58
2023/07/27 14:03:52;;;;;;;6.67;2.00;;;;;;;;;;755159;184;934153;-64
2023/07/27 14:06:17;;;;;;;3.87;2.20;;;;;;;;;;754444;183;930565;-59
2023/07/27 14:08:43;;;;;;;4.97;2.67;;;;;;;;;;752710;183;919377;-58
2023/07/27 14:11:09;;;;;;;6.10;2.37;;;;;;;;;;752831;184;915533;-58
2023/07/27 14:13:35;;;;;;;3.13;2.00;;;;;;;;;;756444;184;819783;-65
2023/07/27 14:16:01;;;;;;;4.43;1.93;;;;;;;;;;757353;182;930425;-58
2023/07/27 14:18:27;;;;;;;4.23;2.50;;;;;;;;;;761284;182;919734;-58